Time;durP1;ratioP1;P1;durP2;ratioP2;P2;SDS_P1;SDS_P2;PMS_P1;PMS_P2;Temp;Humidity;BMP_temperature;BMP_pressure;BME280_temperature;BME280_humidity;BME280_pressure;Samples;Min_cycle;Max_cycle;Signal;HPM_P1;HPM_P2
2022/06/15 00:01:28;;;;;;;;;9.25;7.75;;;;;23.25;38.52;101166.97;5064805;27;45771;-66
2022/06/15 00:03:55;;;;;;;;;8.00;7.00;;;;;23.23;38.80;101172.53;5056961;28;45789;-66
2022/06/15 00:06:24;;;;;;;;;5.75;5.00;;;;;23.19;39.05;101178.34;5082030;28;48050;-66
2022/06/15 00:08:52;;;;;;;;;7.00;6.00;;;;;23.15;38.57;101172.28;5081088;28;45471;-66
2022/06/15 00:11:21;;;;;;;;;6.50;6.50;;;;;23.11;38.67;101168.06;5081186;27;45286;-66
2022/06/15 00:13:47;;;;;;;;;6.00;6.00;;;;;23.09;38.88;101165.47;5080908;28;45340;-66
2022/06/15 00:16:13;;;;;;;;;7.00;6.00;;;;;23.10;38.76;101172.66;5082045;27;45390;-66
2022/06/15 00:18:39;;;;;;;;;7.75;7.00;;;;;23.03;38.96;101171.34;5063504;28;45385;-66
2022/06/15 00:21:05;;;;;;;;;6.00;6.00;;;;;22.99;38.66;101164.44;5080934;27;45459;-66
2022/06/15 00:23:32;;;;;;;;;6.25;6.25;;;;;22.96;38.58;101167.38;5080923;28;45360;-66
2022/06/15 00:25:57;;;;;;;;;6.75;6.75;;;;;22.91;38.75;101162.28;5081818;28;45392;-66
2022/06/15 00:28:24;;;;;;;;;7.00;6.25;;;;;22.85;39.27;101161.91;5081497;28;45476;-66
2022/06/15 00:30:50;;;;;;;;;4.75;4.50;;;;;22.83;39.15;101155.72;5081582;27;45616;-66
2022/06/15 00:33:19;;;;;;;;;9.00;7.25;;;;;22.80;39.27;101158.66;5080348;28;47314;-66
2022/06/15 00:35:51;;;;;;;;;6.25;5.75;;;;;22.80;39.17;101169.56;5080884;27;46083;-66
2022/06/15 00:38:16;;;;;;;;;5.00;5.00;;;;;22.76;39.70;101169.78;5080863;28;45432;-66
2022/06/15 00:40:42;;;;;;;;;6.00;6.00;;;;;22.72;38.94;101168.31;5081035;27;45454;-66
2022/06/15 00:43:09;;;;;;;;;9.00;7.75;;;;;22.69;39.14;101171.25;5080204;27;45373;-66
2022/06/15 00:45:34;;;;;;;;;6.25;6.00;;;;;22.63;39.56;101166.28;5062719;28;47890;-66
2022/06/15 00:47:59;;;;;;;;;5.00;5.00;;;;;22.67;39.62;101175.97;5081602;27;45354;-66
2022/06/15 00:50:25;;;;;;;;;4.50;4.25;;;;;22.65;38.97;101177.03;5062830;28;45413;-66
2022/06/15 00:53:07;;;;;;;;;5.00;5.00;;;;;22.59;39.71;101172.94;5061631;28;45350;-66
2022/06/15 00:55:34;;;;;;;;;6.75;6.00;;;;;22.59;39.38;101172.94;5062950;28;48030;-66
2022/06/15 00:58:07;;;;;;;;;7.00;7.00;;;;;22.56;39.43;101173.19;5062855;28;46009;-66
2022/06/15 01:00:33;;;;;;;;;7.00;7.00;;;;;22.55;39.75;101174.16;5080605;27;45440;-66
2022/06/15 01:02:59;;;;;;;;;6.00;6.00;;;;;22.51;39.41;101173.53;5079222;27;46763;-66
2022/06/15 01:05:52;;;;;;;;;7.00;7.00;;;;;22.54;39.58;101180.59;5062733;28;47012;-66
2022/06/15 01:08:46;;;;;;;;;6.00;6.00;;;;;22.49;40.01;101172.78;5072184;27;45405;-66
2022/06/15 01:11:37;;;;;;;;;6.00;6.00;;;;;22.46;39.87;101173.00;5051248;28;45308;-66
2022/06/15 01:14:02;;;;;;;;;6.50;6.50;;;;;22.50;39.99;101173.63;5080650;27;45587;-67
2022/06/15 01:16:30;;;;;;;;;6.00;6.00;;;;;22.48;40.18;101178.34;5073770;28;45296;-66
2022/06/15 01:18:59;;;;;;;;;4.50;4.50;;;;;22.47;40.34;101179.31;5054406;28;45992;-66
2022/06/15 01:21:44;;;;;;;;;7.00;7.00;;;;;22.45;40.67;101175.84;5080454;28;45445;-66
2022/06/15 01:24:39;;;;;;;;;5.00;5.00;;;;;22.43;40.65;101172.38;5080114;28;45484;-66
2022/06/15 01:27:23;;;;;;;;;6.50;5.00;;;;;22.37;40.33;101166.41;5068160;28;46769;-66
2022/06/15 01:30:29;;;;;;;;;7.00;5.25;;;;;22.39;40.74;101175.31;5079275;27;45493;-66
2022/06/15 01:33:05;;;;;;;;;5.75;5.75;;;;;22.34;40.78;101173.94;5079045;27;45565;-66
2022/06/15 01:35:54;;;;;;;;;5.75;4.50;;;;;22.32;41.25;101175.88;5060606;28;45416;-66
2022/06/15 01:38:37;;;;;;;;;5.75;5.00;;;;;22.25;41.05;101164.56;5066659;27;46458;-66
2022/06/15 01:41:16;;;;;;;;;6.50;6.50;;;;;22.25;41.35;101164.56;5080265;28;45624;-66
2022/06/15 01:43:49;;;;;;;;;4.75;4.75;;;;;22.20;41.14;101159.50;5079357;27;45995;-66
2022/06/15 01:46:15;;;;;;;;;2.75;2.75;;;;;22.23;40.97;101171.13;5080483;28;45183;-66
2022/06/15 01:48:42;;;;;;;;;6.25;6.25;;;;;22.17;41.63;101150.72;5061696;28;46962;-66
2022/06/15 01:51:14;;;;;;;;;6.75;5.75;;;;;22.14;41.09;101145.50;5079688;28;45351;-66
2022/06/15 01:53:47;;;;;;;;;6.00;6.00;;;;;22.15;41.49;101158.97;5079934;28;45239;-66
2022/06/15 01:56:33;;;;;;;;;7.00;7.00;;;;;22.14;41.11;101161.81;5080106;28;45591;-66
2022/06/15 01:59:06;;;;;;;;;5.50;5.50;;;;;22.05;41.44;101157.91;5061583;28;47251;-66
2022/06/15 02:01:46;;;;;;;;;6.25;6.25;;;;;22.02;41.10;101150.00;5077158;27;45457;-66
2022/06/15 02:04:28;;;;;;;;;6.00;6.00;;;;;21.97;41.63;101146.75;5078800;28;45257;-66
2022/06/15 02:07:08;;;;;;;;;6.25;5.00;;;;;21.93;41.59;101145.22;5061870;28;45464;-66
2022/06/15 02:09:41;;;;;;;;;4.50;3.50;;;;;21.92;41.77;101146.22;5080094;28;46104;-66
2022/06/15 02:12:08;;;;;;;;;5.25;5.00;;;;;21.83;41.89;101137.78;5060132;28;45484;-66
2022/06/15 02:14:41;;;;;;;;;5.00;5.00;;;;;21.83;41.65;101145.03;5079754;28;45337;-66
2022/06/15 02:17:29;;;;;;;;;6.25;6.25;;;;;21.83;42.43;101142.31;5079839;28;45227;-66
2022/06/15 02:20:03;;;;;;;;;6.00;6.00;;;;;21.72;42.43;101123.22;5078443;27;45698;-66
2022/06/15 02:22:33;;;;;;;;;5.00;4.00;;;;;21.76;42.28;101139.19;5078745;28;45418;-66
2022/06/15 02:25:03;;;;;;;;;6.00;5.25;;;;;21.75;42.73;101139.31;5080063;28;45601;-66
2022/06/15 02:27:32;;;;;;;;;4.75;4.75;;;;;21.77;42.61;101132.78;5079965;28;45378;-66
2022/06/15 02:30:10;;;;;;;;;7.50;5.00;;;;;21.75;42.80;101128.44;5082370;27;45286;-66
2022/06/15 02:32:37;;;;;;;;;6.25;6.25;;;;;21.71;42.61;101126.94;5073569;27;45451;-66
2022/06/15 02:35:04;;;;;;;;;4.00;4.00;;;;;21.75;43.12;101133.88;5061891;28;45363;-66
2022/06/15 02:37:29;;;;;;;;;7.00;6.00;;;;;21.76;43.10;101132.91;5061201;28;45429;-66
2022/06/15 02:39:54;;;;;;;;;5.25;5.25;;;;;21.69;42.75;101113.47;5078701;27;46165;-66
2022/06/15 02:42:25;;;;;;;;;5.75;5.75;;;;;21.81;43.10;101137.00;5078673;28;45334;-66
2022/06/15 02:44:54;;;;;;;;;4.00;4.00;;;;;21.76;43.11;101128.31;5079773;28;45232;-66
2022/06/15 02:47:22;;;;;;;;;6.75;5.00;;;;;21.77;42.85;101124.63;5079418;28;45240;-66
2022/06/15 02:49:51;;;;;;;;;9.25;6.50;;;;;21.81;43.17;101139.72;5078240;27;45373;-66
2022/06/15 02:52:23;;;;;;;;;6.50;6.50;;;;;21.77;43.59;101130.06;5058862;28;45543;-66
2022/06/15 02:54:52;;;;;;;;;5.50;5.00;;;;;21.78;43.37;101131.78;5067296;28;45377;-66
2022/06/15 02:57:19;;;;;;;;;7.75;6.25;;;;;21.76;43.35;101124.75;5079531;28;45386;-66
2022/06/15 02:59:45;;;;;;;;;5.25;5.25;;;;;21.74;44.01;101124.00;5060401;28;45530;-66
2022/06/15 03:02:14;;;;;;;;;8.00;7.00;;;;;21.78;43.71;101122.78;5057470;28;47013;-66
2022/06/15 03:04:41;;;;;;;;;6.25;6.25;;;;;21.78;44.07;101130.94;5079726;28;45173;-66
2022/06/15 03:07:07;;;;;;;;;5.50;5.25;;;;;21.78;43.57;101134.50;5078627;27;45326;-66
2022/06/15 03:09:32;;;;;;;;;6.00;6.00;;;;;21.73;43.84;101133.13;5079234;27;45380;-66
2022/06/15 03:11:58;;;;;;;;;4.50;4.50;;;;;21.76;43.83;101130.19;5078313;28;45347;-66
2022/06/15 03:14:23;;;;;;;;;6.25;6.25;;;;;21.71;44.29;101124.22;5061670;28;49722;-66
2022/06/15 03:16:49;;;;;;;;;6.00;5.00;;;;;21.74;44.48;101135.72;5082488;28;48411;-66
2022/06/15 03:19:15;;;;;;;;;8.00;4.50;;;;;21.69;44.44;101135.19;5063161;28;47877;-66
2022/06/15 03:21:40;;;;;;;;;6.25;6.25;;;;;21.64;43.94;101140.09;5081482;28;45736;-66
2022/06/15 03:24:06;;;;;;;;;5.75;4.75;;;;;21.62;44.27;101131.19;5082787;28;45691;-66
2022/06/15 03:26:32;;;;;;;;;6.50;6.50;;;;;21.64;44.60;101145.53;5082649;28;45461;-66
2022/06/15 03:28:58;;;;;;;;;6.25;5.00;;;;;21.62;44.38;101153.78;5064321;28;47422;-66
2022/06/15 03:31:27;;;;;;;;;5.00;5.00;;;;;21.58;44.20;101143.25;5082176;27;45347;-66
2022/06/15 03:33:53;;;;;;;;;4.25;4.25;;;;;21.60;44.60;101144.88;5082506;28;45627;-66
2022/06/15 03:36:19;;;;;;;;;4.00;4.00;;;;;21.62;44.60;101142.06;5064082;28;45517;-66
2022/06/15 03:38:44;;;;;;;;;6.00;6.00;;;;;21.58;45.16;101144.09;5081851;27;45531;-66
2022/06/15 03:41:10;;;;;;;;;5.00;5.00;;;;;21.52;45.14;101127.38;5082167;28;45335;-66
2022/06/15 03:43:35;;;;;;;;;6.75;5.75;;;;;21.60;45.12;101142.16;5080898;27;45484;-66
2022/06/15 03:46:01;;;;;;;;;5.25;5.00;;;;;21.59;44.72;101139.56;5082340;28;45391;-66
2022/06/15 03:48:26;;;;;;;;;3.00;3.00;;;;;21.58;45.22;101135.09;5062906;28;47191;-66
2022/06/15 03:50:51;;;;;;;;;7.25;6.00;;;;;21.51;45.55;101125.66;5081291;28;45428;-66
2022/06/15 03:53:17;;;;;;;;;8.50;7.00;;;;;21.57;45.16;101139.69;5080838;28;45496;-66
2022/06/15 03:55:43;;;;;;;;;5.00;5.00;;;;;21.56;45.69;101143.34;5082163;28;45220;-66
2022/06/15 03:58:18;;;;;;;;;5.00;5.00;;;;;21.52;45.31;101128.28;5081374;27;45248;-66
2022/06/15 04:00:43;;;;;;;;;5.50;5.50;;;;;21.54;45.24;101142.59;5063778;28;45417;-66
2022/06/15 04:03:09;;;;;;;;;7.25;6.00;;;;;21.53;45.30;101145.44;5060586;28;45244;-66
2022/06/15 04:05:50;;;;;;;;;4.75;3.50;;;;;21.51;45.72;101141.97;5081427;27;45279;-66
2022/06/15 04:08:37;;;;;;;;;8.75;7.25;;;;;21.51;46.00;101136.53;5081187;27;45899;-66
2022/06/15 04:11:07;;;;;;;;;5.75;5.75;;;;;21.52;45.82;101135.53;5072633;28;45322;-66
2022/06/15 04:13:33;;;;;;;;;8.00;8.00;;;;;21.51;45.62;101134.69;5080518;28;45336;-66
2022/06/15 04:15:59;;;;;;;;;7.25;6.00;;;;;21.48;45.74;101128.59;5081835;28;45349;-66
2022/06/15 04:18:24;;;;;;;;;4.25;4.25;;;;;21.50;46.06;101134.78;5062475;27;47169;-66
2022/06/15 04:20:50;;;;;;;;;4.75;4.75;;;;;21.54;45.67;101139.03;5063679;28;45410;-66
2022/06/15 04:23:18;;;;;;;;;6.00;6.00;;;;;21.53;46.04;101138.13;5080276;27;45514;-66
2022/06/15 04:25:45;;;;;;;;;6.00;5.00;;;;;21.55;45.97;101140.75;5081534;28;45333;-66
2022/06/15 04:28:13;;;;;;;;;7.25;7.25;;;;;21.55;46.51;101141.63;5081047;27;46347;-66
2022/06/15 04:30:38;;;;;;;;;6.50;5.75;;;;;21.55;45.96;101146.19;5081973;27;45447;-66
2022/06/15 04:33:04;;;;;;;;;5.00;5.00;;;;;21.56;46.35;101137.94;5080684;28;45577;-66
2022/06/15 04:35:30;;;;;;;;;4.50;4.50;;;;;21.53;46.04;101134.56;5081772;28;45579;-66
2022/06/15 04:37:55;;;;;;;;;4.75;4.75;;;;;21.53;46.43;101140.84;5080669;27;46278;-66
2022/06/15 04:40:21;;;;;;;;;7.50;6.25;;;;;21.56;45.98;101146.06;5080170;27;45425;-66
2022/06/15 04:42:46;;;;;;;;;6.25;6.25;;;;;21.55;46.47;101143.47;5055717;28;45362;-66
2022/06/15 04:45:14;;;;;;;;;7.00;7.00;;;;;21.57;46.18;101147.81;5081274;28;45557;-66
2022/06/15 04:47:40;;;;;;;;;6.00;6.00;;;;;21.58;45.81;101148.69;5080402;27;45616;-66
2022/06/15 04:50:07;;;;;;;;;4.75;4.75;;;;;21.57;46.53;101153.25;5081163;28;45287;-66
2022/06/15 04:52:33;;;;;;;;;6.00;6.00;;;;;21.53;46.37;101146.28;5080296;27;45252;-66
2022/06/15 04:54:58;;;;;;;;;5.75;5.75;;;;;21.51;45.94;101153.69;5081404;28;45276;-66
2022/06/15 04:57:23;;;;;;;;;7.50;5.75;;;;;21.51;46.35;101159.13;5081149;28;45421;-66
2022/06/15 04:59:49;;;;;;;;;7.00;7.00;;;;;21.44;46.54;101155.09;5080320;27;45300;-66
2022/06/15 05:02:15;;;;;;;;;8.00;8.00;;;;;21.41;46.28;101163.44;5061599;28;45315;-66
2022/06/15 05:04:41;;;;;;;;;6.50;5.00;;;;;21.35;46.06;101158.44;5063072;28;45414;-66
2022/06/15 05:07:07;;;;;;;;;7.00;7.00;;;;;21.38;46.52;101158.22;5066319;28;47365;-66
2022/06/15 05:09:32;;;;;;;;;8.25;8.25;;;;;21.35;47.00;101150.28;5078473;27;46175;-66
2022/06/15 05:11:57;;;;;;;;;10.75;9.00;;;;;21.39;47.05;101154.53;5061782;28;45426;-67
2022/06/15 05:14:23;;;;;;;;;6.25;6.25;;;;;21.41;47.30;101160.72;5061726;28;45833;-66
2022/06/15 05:16:48;;;;;;;;;9.00;6.00;;;;;21.40;47.39;101150.84;5080356;28;48582;-65
2022/06/15 05:19:14;;;;;;;;;7.50;7.25;;;;;21.44;47.38;101158.66;5080801;28;45338;-66
2022/06/15 05:21:41;;;;;;;;;9.25;7.75;;;;;21.41;47.44;101155.31;5080059;27;45428;-65
2022/06/15 05:24:07;;;;;;;;;7.25;7.00;;;;;21.47;47.15;101168.47;5079614;28;45327;-66
2022/06/15 05:26:33;;;;;;;;;9.25;8.00;;;;;21.48;46.50;101159.34;5062389;28;47298;-66
2022/06/15 05:28:58;;;;;;;;;8.75;7.25;;;;;21.51;47.26;101169.13;5080536;28;45469;-65
2022/06/15 05:31:24;;;;;;;;;6.25;6.25;;;;;21.46;47.11;101158.56;5059252;27;45518;-66
2022/06/15 05:33:53;;;;;;;;;7.00;7.00;;;;;21.50;47.01;101159.22;5079174;28;45378;-66
2022/06/15 05:36:22;;;;;;;;;7.00;7.00;;;;;21.52;47.15;101162.69;5079853;28;45326;-66
2022/06/15 05:38:47;;;;;;;;;7.75;7.00;;;;;21.52;47.36;101163.59;5061128;28;45682;-66
2022/06/15 05:41:13;;;;;;;;;6.25;6.25;;;;;21.51;47.21;101160.97;5080324;28;45424;-65
2022/06/15 05:46:14;;;;;;;;;8.00;8.00;;;;;21.54;46.80;101163.47;5080006;28;46075;-65
2022/06/15 05:48:40;;;;;;;;;7.00;7.00;;;;;21.51;47.10;101153.69;5079999;28;45449;-65
2022/06/15 05:51:05;;;;;;;;;7.50;7.50;;;;;21.55;46.86;101154.34;5080085;27;45362;-65
2022/06/15 05:53:31;;;;;;;;;8.00;7.75;;;;;21.58;47.22;101159.53;5078775;27;45740;-66
2022/06/15 05:55:56;;;;;;;;;8.75;7.50;;;;;21.55;47.63;101155.22;5079376;28;63833;-67
2022/06/15 05:58:21;;;;;;;;;11.75;7.25;;;;;21.57;47.42;101157.84;5077168;28;46623;-66
2022/06/15 06:00:47;;;;;;;;;7.50;7.50;;;;;21.59;46.99;101161.28;5079012;28;45780;-66
2022/06/15 06:03:12;;;;;;;;;10.50;8.00;;;;;21.60;46.73;101153.03;5061205;28;45422;-67
2022/06/15 06:05:37;;;;;;;;;9.50;9.00;;;;;21.63;46.52;101158.25;5080072;28;45611;-67
2022/06/15 06:08:03;;;;;;;;;9.25;6.50;;;;;21.68;47.28;101167.91;5079623;28;58165;-67
2022/06/15 06:10:28;;;;;;;;;6.75;6.75;;;;;21.70;46.98;101165.94;5079843;28;45252;-67
2022/06/15 06:12:54;;;;;;;;;11.75;9.00;;;;;21.67;47.20;101158.91;5079658;28;45616;-67
2022/06/15 06:15:19;;;;;;;;;12.00;10.50;;;;;21.71;46.75;101163.09;5060786;28;47247;-67
2022/06/15 06:17:44;;;;;;;;;11.75;10.00;;;;;21.69;46.79;101159.66;5060856;28;45429;-67
2022/06/15 06:20:10;;;;;;;;;10.25;9.00;;;;;21.70;47.06;101158.69;5079981;28;45323;-67
2022/06/15 06:22:35;;;;;;;;;9.00;7.00;;;;;21.72;46.28;101155.81;5079675;28;45248;-67
2022/06/15 06:25:01;;;;;;;;;7.25;7.00;;;;;21.78;45.92;101164.38;5061581;28;47064;-67
2022/06/15 06:27:26;;;;;;;;;12.00;9.75;;;;;21.77;46.58;101157.25;5079400;28;45390;-67
2022/06/15 06:29:51;;;;;;;;;7.50;7.50;;;;;21.79;46.30;101152.56;5079501;28;45508;-66
2022/06/15 06:32:17;;;;;;;;;14.50;11.50;;;;;21.83;46.58;101151.38;5076998;28;59856;-66
2022/06/15 06:34:42;;;;;;;;;10.25;10.00;;;;;21.82;46.74;101154.19;5077330;28;45653;-67
2022/06/15 06:37:12;;;;;;;;;12.75;10.25;;;;;21.85;46.56;101159.38;5079833;28;45351;-66
2022/06/15 06:39:37;;;;;;;;;9.50;8.75;;;;;21.86;46.56;101157.56;5078907;27;46131;-66
2022/06/15 06:42:05;;;;;;;;;14.75;13.75;;;;;21.79;46.34;101147.13;5079249;28;45482;-66
2022/06/15 06:44:30;;;;;;;;;13.50;10.50;;;;;21.91;46.60;101160.78;5059897;28;46381;-66
2022/06/15 06:46:56;;;;;;;;;10.75;10.00;;;;;21.92;46.58;101162.50;5078147;27;45304;-66
2022/06/15 06:49:22;;;;;;;;;9.50;8.25;;;;;22.00;46.86;101170.97;5078809;27;45982;-66
2022/06/15 06:51:48;;;;;;;;;12.50;11.00;;;;;22.02;46.76;101160.88;5062256;28;46100;-66
2022/06/15 06:54:16;;;;;;;;;10.00;7.75;;;;;22.08;46.37;101162.25;5082460;28;46107;-66
2022/06/15 06:56:42;;;;;;;;;8.75;7.50;;;;;22.11;46.55;101172.91;5083034;28;45605;-67
2022/06/15 06:59:09;;;;;;;;;12.75;12.00;;;;;22.11;44.94;101171.06;5082767;27;45331;-67
2022/06/15 07:01:36;;;;;;;;;6.25;6.25;;;;;22.09;45.62;101173.03;5082121;28;45590;-67
2022/06/15 07:04:02;;;;;;;;;10.25;9.25;;;;;22.13;45.25;101165.50;5068220;28;47024;-67
2022/06/15 07:06:27;;;;;;;;;11.00;9.25;;;;;22.16;45.24;101176.16;5080298;28;45269;-67
2022/06/15 07:08:53;;;;;;;;;8.00;7.00;;;;;22.19;45.47;101176.78;5078095;27;45381;-67
2022/06/15 07:11:18;;;;;;;;;10.25;9.25;;;;;22.25;44.72;101172.72;5075017;27;45347;-67
2022/06/15 07:13:46;;;;;;;;;8.75;8.75;;;;;22.29;45.07;101168.00;5082468;28;45570;-67
2022/06/15 07:16:14;;;;;;;;;10.00;9.00;;;;;22.29;44.40;101162.56;5079167;28;45537;-67
2022/06/15 07:18:40;;;;;;;;;11.00;10.75;;;;;22.33;44.86;101164.91;5080256;27;45368;-68
2022/06/15 07:21:12;;;;;;;;;10.00;9.50;;;;;22.41;45.00;101166.19;5090226;27;45482;-66
2022/06/15 07:23:39;;;;;;;;;11.00;8.00;;;;;22.44;44.53;101166.81;5073353;28;45276;-71
2022/06/15 07:26:10;;;;;;;;;8.50;8.50;;;;;22.47;45.02;101169.31;5077190;27;45597;-67
2022/06/15 07:28:37;;;;;;;;;9.75;9.25;;;;;22.52;45.07;101168.94;5080586;28;45381;-67
2022/06/15 07:31:02;;;;;;;;;12.25;11.75;;;;;22.60;44.57;101180.09;5077301;27;45371;-67
2022/06/15 07:33:28;;;;;;;;;10.00;9.75;;;;;22.64;44.64;101180.78;5080255;28;45620;-67
2022/06/15 07:35:53;;;;;;;;;9.25;9.00;;;;;22.68;44.88;101174.94;5091490;27;45417;-67
2022/06/15 07:38:19;;;;;;;;;13.50;10.25;;;;;22.73;44.57;101178.19;5064723;28;45456;-67
2022/06/15 07:40:46;;;;;;;;;9.50;8.75;;;;;22.79;44.12;101181.41;5079074;28;45536;-67
2022/06/15 07:43:12;;;;;;;;;7.75;7.00;;;;;22.80;44.30;101175.00;5079096;28;45321;-67
2022/06/15 07:45:37;;;;;;;;;8.00;7.50;;;;;22.91;44.24;101170.47;5080234;28;45601;-66
2022/06/15 07:50:47;;;;;;;;;9.75;8.00;;;;;23.01;44.12;101175.19;5077022;27;45348;-67
2022/06/15 07:53:14;;;;;;;;;8.50;7.25;;;;;23.11;44.16;101188.00;5083810;27;45342;-68
2022/06/15 07:55:43;;;;;;;;;9.50;8.75;;;;;23.20;43.83;101182.81;5082777;27;45417;-71
2022/06/15 07:58:10;;;;;;;;;8.25;8.25;;;;;23.23;44.05;101171.69;5080337;28;45691;-70
2022/06/15 08:00:37;;;;;;;;;10.75;10.00;;;;;23.31;44.08;101170.06;5079465;28;45426;-70
2022/06/15 08:03:04;;;;;;;;;9.25;8.75;;;;;23.43;43.29;101170.09;5076356;28;45722;-71
2022/06/15 08:05:35;;;;;;;;;5.75;5.75;;;;;23.49;43.56;101175.06;5077093;28;45433;-71
2022/06/15 08:08:02;;;;;;;;;8.75;7.75;;;;;23.59;43.67;101172.44;5080267;27;45351;-70
2022/06/15 08:10:28;;;;;;;;;7.00;7.00;;;;;23.64;42.56;101167.50;5078249;28;45782;-71
2022/06/15 08:12:54;;;;;;;;;8.50;6.00;;;;;23.73;42.26;101176.78;5078956;27;46257;-70
2022/06/15 08:15:20;;;;;;;;;5.50;5.50;;;;;23.79;42.38;101176.28;5078834;28;45418;-71
2022/06/15 08:17:56;;;;;;;;;6.25;6.25;;;;;23.85;42.19;101168.50;5082101;27;45392;-70
2022/06/15 08:20:28;;;;;;;;;7.00;7.00;;;;;23.92;41.65;101166.13;5073526;28;45505;-71
2022/06/15 08:23:01;;;;;;;;;5.75;5.75;;;;;24.03;41.26;101168.00;5076919;27;45502;-70
2022/06/15 08:25:32;;;;;;;;;9.50;8.75;;;;;24.10;41.16;101168.34;5076944;27;45726;-75
2022/06/15 08:27:59;;;;;;;;;9.00;7.00;;;;;24.15;41.07;101166.97;5079703;28;45509;-74
2022/06/15 08:30:26;;;;;;;;;8.25;7.50;;;;;24.19;41.37;101162.09;5075741;27;45474;-72
2022/06/15 08:32:52;;;;;;;;;9.00;8.00;;;;;24.29;40.97;101170.41;5073468;27;45602;-73
2022/06/15 08:35:17;;;;;;;;;6.75;6.75;;;;;24.24;41.56;101154.44;5076075;28;45607;-73
2022/06/15 08:37:43;;;;;;;;;5.00;5.00;;;;;24.40;41.71;101173.09;5081254;28;45520;-74
2022/06/15 08:40:09;;;;;;;;;8.50;6.50;;;;;24.47;41.00;101168.84;5062142;28;45492;-75
2022/06/15 08:42:43;;;;;;;;;6.25;6.00;;;;;24.53;40.98;101168.34;5075682;28;45814;-74
2022/06/15 08:45:46;;;;;;;;;5.00;5.00;;;;;24.61;40.51;101170.44;5080971;28;45455;-74
2022/06/15 08:48:29;;;;;;;;;7.00;7.00;;;;;24.66;39.71;101173.66;5069713;28;45410;-74
2022/06/15 08:50:59;;;;;;;;;8.25;7.00;;;;;24.70;39.30;101163.34;5079152;28;45275;-74
2022/06/15 08:53:47;;;;;;;;;9.00;6.75;;;;;24.73;39.75;101161.22;5080340;27;45502;-74
2022/06/15 08:56:23;;;;;;;;;10.50;10.50;;;;;24.77;39.82;101157.22;5080545;28;45661;-74
2022/06/15 08:59:02;;;;;;;;;7.75;7.75;;;;;24.83;40.04;101157.69;5080653;27;45335;-74
2022/06/15 09:01:40;;;;;;;;;7.00;7.00;;;;;24.79;39.32;101146.16;5077068;28;45552;-73
2022/06/15 09:04:09;;;;;;;;;6.00;6.00;;;;;24.94;39.04;101161.22;5080583;28;45559;-75
2022/06/15 09:06:51;;;;;;;;;5.75;5.75;;;;;25.02;39.70;101160.53;5084800;27;45418;-73
2022/06/15 09:09:41;;;;;;;;;8.50;8.50;;;;;25.06;38.58;101159.28;5077842;27;45469;-73
2022/06/15 09:15:18;;;;;;;;;8.50;7.25;;;;;25.12;38.55;101153.28;5079541;28;45440;-71
2022/06/15 09:17:46;;;;;;;;;6.00;5.50;;;;;25.15;38.86;101155.75;5058946;28;45295;-71
2022/06/15 09:20:23;;;;;;;;;10.50;7.25;;;;;25.23;39.58;101159.69;5075371;28;45433;-71
2022/06/15 09:22:56;;;;;;;;;10.50;9.00;;;;;25.31;38.42;101159.91;5078536;28;45519;-70
2022/06/15 09:25:30;;;;;;;;;7.25;7.25;;;;;25.33;38.78;101160.63;5079571;28;45552;-69
2022/06/15 09:28:04;;;;;;;;;8.00;6.50;;;;;25.40;38.52;101161.81;5080289;28;45350;-70
2022/06/15 09:30:33;;;;;;;;;7.00;6.50;;;;;25.39;38.74;101159.22;5080261;28;45372;-70
2022/06/15 09:32:58;;;;;;;;;8.00;6.50;;;;;25.44;38.52;101156.94;5078419;28;45406;-70
2022/06/15 09:35:38;;;;;;;;;8.00;8.00;;;;;25.46;39.41;101161.28;5078544;28;45497;-72
2022/06/15 09:38:09;;;;;;;;;6.00;6.00;;;;;25.55;38.77;101165.03;5075113;27;45591;-71
2022/06/15 09:40:43;;;;;;;;;7.00;6.00;;;;;25.57;38.24;101153.97;5060627;27;45729;-70
2022/06/15 09:43:32;;;;;;;;;8.00;8.00;;;;;25.62;38.36;101155.28;5074250;27;45339;-70
2022/06/15 09:46:05;;;;;;;;;8.50;8.50;;;;;25.63;38.13;101150.72;5077999;27;45597;-70
2022/06/15 09:48:49;;;;;;;;;7.75;7.00;;;;;25.65;37.94;101149.53;5079247;27;45474;-70
2022/06/15 09:51:31;;;;;;;;;6.50;6.50;;;;;25.65;38.12;101145.97;5076076;27;45437;-69
2022/06/15 09:54:11;;;;;;;;;10.00;7.50;;;;;25.71;37.42;101153.63;5067737;27;45310;-70
2022/06/15 09:56:37;;;;;;;;;9.50;8.75;;;;;25.69;38.53;101141.94;5066517;27;46668;-70
2022/06/15 09:59:09;;;;;;;;;10.00;8.50;;;;;25.70;37.92;101141.78;5076825;28;45794;-70
2022/06/15 10:01:41;;;;;;;;;7.00;7.00;;;;;25.78;37.77;101141.13;5073258;28;45523;-70
2022/06/15 10:04:15;;;;;;;;;8.25;8.25;;;;;25.85;37.81;101145.00;5072902;28;45310;-70
2022/06/15 10:06:51;;;;;;;;;5.75;5.50;;;;;25.88;37.33;101144.72;5057112;28;47042;-69
2022/06/15 10:09:20;;;;;;;;;11.00;9.25;;;;;25.92;37.14;101148.06;5078818;28;45248;-70
2022/06/15 10:11:49;;;;;;;;;7.25;7.25;;;;;25.98;37.10;101154.88;5070152;28;45387;-70
2022/06/15 10:14:20;;;;;;;;;8.25;7.00;;;;;26.01;37.54;101154.56;5071711;27;45714;-70
2022/06/15 10:16:54;;;;;;;;;10.25;8.25;;;;;26.06;36.93;101149.53;5074990;27;47138;-71
2022/06/15 10:19:20;;;;;;;;;8.50;8.50;;;;;26.05;36.96;101156.03;5074499;27;45663;-71
2022/06/15 10:21:52;;;;;;;;;6.75;5.75;;;;;26.04;37.18;101143.34;5058298;28;45282;-71
2022/06/15 10:24:29;;;;;;;;;9.00;8.50;;;;;26.10;36.60;101152.91;5078353;28;45408;-72
2022/06/15 10:27:16;;;;;;;;;8.00;7.75;;;;;26.19;37.10;101165.72;5067054;28;46392;-71
2022/06/15 10:29:42;;;;;;;;;9.50;9.00;;;;;26.28;37.20;101164.88;5079148;28;45296;-71
2022/06/15 10:32:10;;;;;;;;;5.75;5.75;;;;;26.35;37.03;101159.69;5075426;27;45399;-71
2022/06/15 10:34:47;;;;;;;;;10.00;9.25;;;;;26.41;36.41;101162.72;5073970;27;45400;-71
2022/06/15 10:37:25;;;;;;;;;7.00;7.00;;;;;26.42;36.88;101160.84;5077925;28;45884;-71
2022/06/15 10:39:55;;;;;;;;;8.25;6.25;;;;;26.39;37.32;101159.25;5069782;28;45495;-71
2022/06/15 10:42:31;;;;;;;;;6.25;6.25;;;;;26.43;36.46;101155.22;5070861;27;45563;-71
2022/06/15 10:45:00;;;;;;;;;10.50;9.50;;;;;26.47;36.10;101153.06;5079307;28;45342;-71
2022/06/15 10:47:32;;;;;;;;;8.25;8.25;;;;;26.47;36.08;101153.06;5078805;28;45394;-71
2022/06/15 10:50:01;;;;;;;;;8.25;8.25;;;;;26.46;37.06;101148.59;5060876;28;45473;-71
2022/06/15 10:52:37;;;;;;;;;12.00;9.75;;;;;26.52;36.82;101156.22;5076964;28;45461;-71
2022/06/15 11:04:25;;;;;;;;;10.00;8.00;;;;;26.52;36.62;101145.28;5070691;27;45583;-73
2022/06/15 11:06:58;;;;;;;;;8.50;7.00;;;;;26.61;36.71;101155.38;5078809;28;45395;-73
2022/06/15 11:09:36;;;;;;;;;7.50;6.25;;;;;26.68;36.07;101152.06;5081176;27;47525;-73
2022/06/15 11:12:19;;;;;;;;;10.75;9.50;;;;;26.67;36.08;101148.50;5087290;27;45716;-73
2022/06/15 11:14:54;;;;;;;;;6.00;6.00;;;;;26.75;35.44;101147.78;5082823;27;45420;-73
2022/06/15 11:20:22;;;;;;;;;9.25;9.25;;;;;26.85;35.92;101140.41;5084494;27;45682;-73
2022/06/15 11:22:52;;;;;;;;;9.00;8.50;;;;;26.85;36.51;101134.94;5085550;27;45983;-73
2022/06/15 11:25:24;;;;;;;;;8.00;8.00;;;;;26.96;36.52;101148.47;5089505;27;45700;-73
2022/06/15 11:28:00;;;;;;;;;9.50;8.50;;;;;27.05;36.20;101148.56;5087443;27;45533;-73
2022/06/15 11:30:33;;;;;;;;;10.00;10.00;;;;;27.16;36.13;101143.81;5062307;27;45636;-73
2022/06/15 11:33:51;;;;;;;;;8.75;8.75;;;;;27.23;36.89;101138.59;5081764;27;45756;-73
2022/06/15 11:36:28;;;;;;;;;10.75;9.75;;;;;27.39;36.10;101134.38;5014458;27;45307;-73
2022/06/15 11:39:04;;;;;;;;;10.25;8.25;;;;;27.46;35.10;101138.25;5067634;27;45643;-73
2022/06/15 11:41:41;;;;;;;;;8.00;8.00;;;;;27.48;35.28;101134.34;5088432;27;46134;-73
2022/06/15 11:44:14;;;;;;;;;10.75;9.75;;;;;27.55;35.13;101145.59;5090415;27;45486;-73
2022/06/15 11:47:16;;;;;;;;;9.25;8.25;;;;;27.51;34.87;101139.50;5085336;27;45233;-75
2022/06/15 11:50:20;;;;;;;;;10.50;10.50;;;;;27.60;34.80;101143.25;5086105;27;45680;-74
2022/06/15 11:53:04;;;;;;;;;11.00;10.50;;;;;27.62;34.46;101148.59;5090638;27;46011;-73
2022/06/15 11:55:37;;;;;;;;;8.00;7.25;;;;;27.57;34.90;101134.47;5083850;27;46593;-74
2022/06/15 11:58:17;;;;;;;;;10.25;9.25;;;;;27.64;34.69;101147.41;5092393;27;45370;-73
2022/06/15 12:00:54;;;;;;;;;10.25;9.50;;;;;27.53;34.76;101128.41;5084395;27;45299;-72